Time;durP1;ratioP1;P1;durP2;ratioP2;P2;SDS_P1;SDS_P2;PMS_P1;PMS_P2;Temp;Humidity;BMP_temperature;BMP_pressure;BME280_temperature;BME280_humidity;BME280_pressure;Samples;Min_cycle;Max_cycle;Signal;HPM_P1;HPM_P2
2021/03/28 00:00:12;;;;;;;3.20;1.65;;;7.80;99.90;;;;;;5031146;28;20041;-74
2021/03/28 00:02:53;;;;;;;5.53;1.80;;;7.80;99.90;;;;;;5022611;28;20029;-73
2021/03/28 00:05:22;;;;;;;3.85;1.63;;;7.70;99.90;;;;;;5023976;28;20072;-74
2021/03/28 00:07:54;;;;;;;5.20;1.65;;;7.60;1.00;;;;;;5025058;28;20052;-73
2021/03/28 00:10:33;;;;;;;5.88;1.88;;;7.60;17.70;;;;;;5025632;28;20022;-74
2021/03/28 00:13:26;;;;;;;4.97;2.05;;;7.60;53.10;;;;;;5023804;28;20085;-74
2021/03/28 00:15:58;;;;;;;9.88;2.78;;;7.50;99.00;;;;;;5020671;28;20037;-77
2021/03/28 00:18:33;;;;;;;6.45;1.30;;;7.50;99.90;;;;;;5053591;28;20024;-73
2021/03/28 00:21:14;;;;;;;5.25;1.65;;;7.50;91.10;;;;;;5055018;28;20074;-77
2021/03/28 00:23:50;;;;;;;4.80;1.83;;;7.50;99.90;;;;;;5041030;28;20026;-76
2021/03/28 00:26:32;;;;;;;2.35;1.90;;;7.40;99.90;;;;;;5052827;28;20097;-77
2021/03/28 00:29:09;;;;;;;7.30;2.13;;;7.40;99.90;;;;;;5056753;28;20021;-77
2021/03/28 00:31:40;;;;;;;6.60;1.50;;;7.30;99.90;;;;;;5047925;28;20073;-76
2021/03/28 00:34:17;;;;;;;6.15;1.83;;;7.30;99.90;;;;;;5056862;28;20023;-75
2021/03/28 00:36:50;;;;;;;5.35;1.85;;;7.30;99.90;;;;;;5057074;28;20032;-75
2021/03/28 00:39:56;;;;;;;4.22;1.38;;;7.40;99.90;;;;;;5054774;28;20022;-76
2021/03/28 00:42:32;;;;;;;7.88;1.67;;;7.30;99.90;;;;;;5067051;22;20092;-73
2021/03/28 00:45:24;;;;;;;5.93;1.98;;;7.30;99.90;;;;;;5056621;28;20053;-73
2021/03/28 00:48:19;;;;;;;6.05;1.48;;;7.20;1.00;;;;;;5048044;28;20048;-72
2021/03/28 00:50:50;;;;;;;6.05;1.75;;;7.20;1.00;;;;;;5050907;28;20039;-73
2021/03/28 00:53:41;;;;;;;3.83;1.30;;;7.20;1.00;;;;;;5055672;28;20062;-73
2021/03/28 00:56:14;;;;;;;4.47;1.73;;;7.20;38.30;;;;;;5052954;28;20025;-74
2021/03/28 00:58:45;;;;;;;5.80;1.88;;;7.10;99.90;;;;;;5033955;28;20021;-74
2021/03/28 01:01:23;;;;;;;4.32;2.28;;;7.00;99.90;;;;;;5032682;28;20033;-74
2021/03/28 01:04:25;;;;;;;4.85;2.30;;;7.00;99.90;;;;;;5032193;28;20567;-73
2021/03/28 01:07:00;;;;;;;5.18;1.80;;;7.00;99.90;;;;;;5053484;28;20029;-72
2021/03/28 01:10:03;;;;;;;7.78;2.13;;;7.00;99.90;;;;;;5051667;28;20397;-74
2021/03/28 01:13:06;;;;;;;5.50;1.88;;;7.00;99.90;;;;;;5052729;28;20130;-73
2021/03/28 01:16:00;;;;;;;3.97;1.58;;;6.90;99.90;;;;;;5052789;28;20075;-72
2021/03/28 01:18:45;;;;;;;5.28;1.80;;;6.90;99.90;;;;;;5017247;28;20045;-73
2021/03/28 01:21:13;;;;;;;5.95;2.00;;;6.80;1.00;;;;;;5053565;28;20028;-74
2021/03/28 01:23:44;;;;;;;6.40;1.60;;;6.80;1.00;;;;;;5049547;28;20029;-72
2021/03/28 01:26:31;;;;;;;;;;;6.80;1.00;;;;;;5032248;28;20124;-71
2021/03/28 01:29:01;;;;;;;5.30;1.55;;;6.90;1.00;;;;;;5034083;28;19954;-71
2021/03/28 01:31:46;;;;;;;8.93;1.70;;;6.80;1.00;;;;;;5036009;28;20033;-72
2021/03/28 01:34:23;;;;;;;3.83;1.70;;;6.70;1.00;;;;;;5053273;28;20603;-72
2021/03/28 01:36:55;;;;;;;7.45;1.92;;;6.70;1.00;;;;;;5035479;28;20029;-72
2021/03/28 01:39:34;;;;;;;5.28;1.80;;;6.80;1.00;;;;;;5053880;28;20028;-72
2021/03/28 01:42:04;;;;;;;8.13;1.92;;;6.70;1.00;;;;;;5051876;28;20021;-70
2021/03/28 01:45:25;;;;;;;4.47;2.28;;;6.70;19.70;;;;;;5050855;28;20029;-70
2021/03/28 01:48:11;;;;;;;6.22;1.98;;;6.70;8.90;;;;;;5009191;28;20521;-70
2021/03/28 01:50:48;;;;;;;6.22;1.50;;;6.70;3.10;;;;;;5028814;28;20477;-69
2021/03/28 01:53:39;;;;;;;8.32;2.65;;;6.60;47.80;;;;;;5052546;28;20036;-71
2021/03/28 01:56:26;;;;;;;7.72;1.50;;;6.70;80.30;;;;;;5052732;28;20113;-70
2021/03/28 01:59:29;;;;;;;4.85;1.63;;;6.70;15.50;;;;;;5034982;28;20021;-69
2021/03/28 02:02:20;;;;;;;4.13;1.70;;;6.60;53.70;;;;;;5052382;28;20044;-69
2021/03/28 02:05:06;;;;;;;2.58;1.38;;;6.60;13.90;;;;;;5052853;28;20469;-70
2021/03/28 02:07:44;;;;;;;5.95;1.65;;;6.80;1.00;;;;;;5052965;28;20033;-70
2021/03/28 02:10:59;;;;;;;3.60;1.73;;;6.90;1.00;;;;;;5034508;28;20025;-69
2021/03/28 02:13:51;;;;;;;7.38;2.15;;;7.00;99.90;;;;;;5034099;28;20029;-70
2021/03/28 02:16:33;;;;;;;2.72;1.40;;;7.00;99.90;;;;;;5013923;28;20517;-69
2021/03/28 02:19:15;;;;;;;5.50;1.65;;;7.00;99.90;;;;;;5051456;28;20029;-69
2021/03/28 02:22:09;;;;;;;8.82;2.08;;;6.90;1.00;;;;;;5049112;28;20025;-69
2021/03/28 02:24:37;;;;;;;6.22;2.45;;;6.80;1.00;;;;;;5052541;28;20493;-69
2021/03/28 02:27:03;;;;;;;4.03;1.52;;;6.70;1.00;;;;;;5054179;28;20025;-71
2021/03/28 02:29:50;;;;;;;4.32;1.80;;;6.70;26.10;;;;;;5053639;28;20146;-69
2021/03/28 02:32:23;;;;;;;5.30;2.28;;;6.70;19.10;;;;;;5051988;28;20060;-70
2021/03/28 02:35:16;;;;;;;5.50;2.30;;;6.70;14.70;;;;;;5057561;28;20059;-69
2021/03/28 02:37:58;;;;;;;3.38;1.42;;;6.70;75.40;;;;;;5057924;28;20051;-71
2021/03/28 02:40:45;;;;;;;5.55;2.78;;;6.60;99.90;;;;;;5063323;28;20081;-70
2021/03/28 02:43:45;;;;;;;7.75;2.65;;;6.50;99.90;;;;;;5057177;28;20079;-70
2021/03/28 02:46:29;;;;;;;6.18;1.48;;;6.50;99.90;;;;;;5057146;28;20053;-70
2021/03/28 02:49:30;;;;;;;6.75;2.08;;;6.60;99.90;;;;;;5031881;28;20512;-69
2021/03/28 02:52:30;;;;;;;4.90;2.05;;;6.70;56.30;;;;;;5015042;28;20405;-69
2021/03/28 02:55:19;;;;;;;8.00;1.50;;;6.70;92.80;;;;;;5050514;28;20025;-70
2021/03/28 02:58:22;;;;;;;5.70;1.65;;;6.70;90.70;;;;;;5056453;28;20025;-70
2021/03/28 03:00:57;;;;;;;9.38;2.55;;;6.70;61.80;;;;;;5049178;28;20079;-68
2021/03/28 03:03:39;;;;;;;7.68;2.63;;;6.80;59.40;;;;;;5038025;28;20115;-69
2021/03/28 03:06:27;;;;;;;6.30;1.80;;;6.80;29.20;;;;;;5055021;28;20033;-69
2021/03/28 03:09:29;;;;;;;5.45;2.10;;;6.80;1.00;;;;;;5055593;28;20106;-69
2021/03/28 03:12:21;;;;;;;3.85;1.40;;;6.70;43.50;;;;;;5055041;28;20452;-69
2021/03/28 03:15:07;;;;;;;2.95;1.52;;;6.60;99.90;;;;;;5041965;28;20439;-69
2021/03/28 03:17:51;;;;;;;6.13;2.05;;;6.60;99.90;;;;;;5034977;28;20029;-69
2021/03/28 03:20:37;;;;;;;3.45;1.70;;;6.50;99.90;;;;;;5034918;28;20025;-69
2021/03/28 03:23:37;;;;;;;3.97;2.00;;;6.50;99.90;;;;;;5055162;28;20385;-70
2021/03/28 03:26:26;;;;;;;5.00;2.05;;;6.40;99.90;;;;;;5051052;28;20103;-70
2021/03/28 03:28:58;;;;;;;4.38;1.80;;;6.40;99.90;;;;;;5055852;28;20185;-68
2021/03/28 03:31:38;;;;;;;3.65;1.77;;;6.40;99.90;;;;;;5054843;28;20370;-69
2021/03/28 03:34:26;;;;;;;5.55;2.35;;;6.30;99.90;;;;;;5054690;28;20029;-70
2021/03/28 03:37:04;;;;;;;4.45;1.50;;;6.30;99.90;;;;;;5049412;28;20025;-69
2021/03/28 03:39:56;;;;;;;3.63;1.70;;;6.30;99.90;;;;;;5054132;28;20036;-69
2021/03/28 03:42:41;;;;;;;4.22;2.30;;;6.30;99.90;;;;;;5054170;28;20330;-70
2021/03/28 03:45:36;;;;;;;5.25;1.83;;;6.30;99.90;;;;;;5054416;28;20027;-68
2021/03/28 03:48:11;;;;;;;4.22;1.70;;;6.30;99.90;;;;;;5050346;28;20104;-70
2021/03/28 03:51:14;;;;;;;5.43;1.80;;;6.30;99.90;;;;;;5054596;28;20453;-69
2021/03/28 03:53:48;;;;;;;3.40;1.80;;;6.30;99.90;;;;;;5046976;28;20029;-70
2021/03/28 03:56:20;;;;;;;4.05;1.75;;;6.40;99.90;;;;;;5053352;28;20477;-70
2021/03/28 03:59:11;;;;;;;7.28;2.00;;;6.40;99.90;;;;;;5054629;28;20325;-69
2021/03/28 04:02:01;;;;;;;8.25;1.88;;;6.40;99.90;;;;;;5052588;28;20103;-70
2021/03/28 04:04:47;;;;;;;4.40;1.60;;;6.40;99.90;;;;;;5054177;28;20033;-70
2021/03/28 04:07:52;;;;;;;4.47;1.58;;;6.30;99.90;;;;;;5054186;28;20477;-69
2021/03/28 04:10:32;;;;;;;4.03;1.98;;;6.30;99.90;;;;;;5050023;28;20044;-70
2021/03/28 04:12:57;;;;;;;4.90;2.03;;;6.30;99.90;;;;;;5050979;28;20029;-69
2021/03/28 04:15:38;;;;;;;3.92;1.75;;;6.20;99.90;;;;;;5053448;28;20066;-70
2021/03/28 04:18:40;;;;;;;3.38;1.30;;;6.20;99.90;;;;;;5035945;28;20240;-69
2021/03/28 04:21:46;;;;;;;3.67;1.70;;;6.20;99.90;;;;;;5034066;28;20036;-69
2021/03/28 04:24:22;;;;;;;5.90;2.58;;;6.10;99.90;;;;;;5053538;28;20033;-70
2021/03/28 04:27:08;;;;;;;3.75;1.65;;;6.00;99.90;;;;;;5036131;28;20025;-70
2021/03/28 04:29:35;;;;;;;4.55;1.40;;;6.00;99.90;;;;;;5053622;28;20224;-69
2021/03/28 04:32:24;;;;;;;6.90;1.90;;;6.00;99.90;;;;;;5053934;28;20028;-71
2021/03/28 04:34:52;;;;;;;3.78;1.30;;;5.90;99.90;;;;;;5049916;28;20488;-70
2021/03/28 04:37:40;;;;;;;3.30;1.75;;;5.90;99.90;;;;;;5053369;28;20029;-70
2021/03/28 04:40:36;;;;;;;4.13;1.88;;;5.90;99.90;;;;;;5035018;28;20016;-69
2021/03/28 04:43:44;;;;;;;5.38;2.08;;;5.80;99.90;;;;;;5052318;28;20064;-69
2021/03/28 04:46:32;;;;;;;7.82;1.75;;;5.80;99.90;;;;;;5034618;28;20099;-69
2021/03/28 04:49:10;;;;;;;7.20;1.92;;;5.70;1.00;;;;;;5053163;28;20037;-69
2021/03/28 04:52:13;;;;;;;5.35;1.85;;;5.60;1.00;;;;;;5052173;28;20033;-70
2021/03/28 04:55:10;;;;;;;8.57;2.03;;;5.60;1.00;;;;;;5049506;28;20040;-70
2021/03/28 04:57:54;;;;;;;3.78;1.80;;;5.60;1.00;;;;;;5046050;28;20025;-70
2021/03/28 05:00:44;;;;;;;4.80;1.50;;;5.60;1.00;;;;;;5053972;28;20477;-69
2021/03/28 05:03:24;;;;;;;7.10;3.13;;;5.60;1.00;;;;;;5053584;28;20037;-69
2021/03/28 05:06:18;;;;;;;4.82;2.25;;;5.60;1.00;;;;;;5053081;28;20477;-70
2021/03/28 05:08:58;;;;;;;4.68;2.10;;;5.60;1.00;;;;;;5052948;28;20109;-69
2021/03/28 05:11:45;;;;;;;5.93;2.17;;;5.60;1.00;;;;;;5053165;28;20099;-70
2021/03/28 05:14:48;;;;;;;10.15;2.17;;;5.60;1.00;;;;;;5052530;28;20029;-70
2021/03/28 05:17:45;;;;;;;4.45;2.35;;;5.60;1.00;;;;;;5026368;28;20079;-70
2021/03/28 05:20:53;;;;;;;4.72;2.20;;;5.60;1.00;;;;;;5037004;28;20278;-70
2021/03/28 05:23:53;;;;;;;4.85;2.63;;;5.70;1.00;;;;;;5054137;28;20044;-70
2021/03/28 05:26:21;;;;;;;8.00;2.17;;;5.60;1.00;;;;;;5051130;28;20025;-69
2021/03/28 05:29:21;;;;;;;10.07;2.33;;;5.60;1.00;;;;;;5052713;28;20429;-69
2021/03/28 05:32:19;;;;;;;4.03;2.03;;;5.70;1.00;;;;;;5053788;28;20112;-69
2021/03/28 05:35:16;;;;;;;8.05;2.08;;;5.80;1.00;;;;;;5062077;28;20024;-69
2021/03/28 05:38:16;;;;;;;14.07;5.45;;;5.80;1.00;;;;;;5041987;28;20480;-70
2021/03/28 05:40:54;;;;;;;9.13;3.72;;;5.80;1.00;;;;;;5052010;28;20037;-70
2021/03/28 05:43:51;;;;;;;7.57;2.42;;;5.80;1.00;;;;;;5052177;28;20035;-70
2021/03/28 05:46:46;;;;;;;6.30;2.97;;;5.80;1.00;;;;;;5051785;28;20033;-69
2021/03/28 05:49:36;;;;;;;4.63;2.10;;;5.70;1.00;;;;;;5049294;28;20029;-70
2021/03/28 05:52:39;;;;;;;4.70;2.15;;;5.80;1.00;;;;;;5052135;28;20024;-69
2021/03/28 05:55:23;;;;;;;5.63;3.40;;;5.80;1.00;;;;;;5029949;28;20033;-69
2021/03/28 05:58:03;;;;;;;9.13;2.35;;;5.80;1.00;;;;;;5045809;28;20382;-69
2021/03/28 06:00:54;;;;;;;9.00;3.45;;;5.80;1.00;;;;;;5033932;28;20029;-69
2021/03/28 06:03:19;;;;;;;9.87;2.90;;;5.80;1.00;;;;;;5052159;28;20151;-69
2021/03/28 06:06:03;;;;;;;5.60;2.28;;;5.80;1.00;;;;;;5058093;28;20033;-70
2021/03/28 06:09:06;;;;;;;7.88;2.90;;;5.80;1.00;;;;;;5064696;28;20503;-70
2021/03/28 06:11:47;;;;;;;4.03;2.20;;;5.90;1.00;;;;;;5035406;28;20024;-69
2021/03/28 06:14:32;;;;;;;8.05;2.38;;;5.90;1.00;;;;;;5053568;28;20059;-70
2021/03/28 06:17:22;;;;;;;6.80;2.03;;;5.90;1.00;;;;;;5050019;28;20025;-70
2021/03/28 06:19:59;;;;;;;7.32;2.28;;;6.00;1.00;;;;;;5047362;28;20025;-69
2021/03/28 06:23:11;;;;;;;5.57;2.20;;;6.20;99.90;;;;;;5052665;28;20021;-70
2021/03/28 06:26:10;;;;;;;4.55;1.83;;;6.50;99.90;;;;;;5034117;28;20025;-70
2021/03/28 06:29:13;;;;;;;5.22;2.03;;;6.80;99.90;;;;;;5046749;28;20028;-69
2021/03/28 06:32:16;;;;;;;8.35;2.25;;;7.00;99.90;;;;;;5056985;28;20057;-69
2021/03/28 06:35:07;;;;;;;5.07;2.35;;;7.10;81.70;;;;;;5041026;28;20060;-69
2021/03/28 06:38:17;;;;;;;6.72;2.65;;;7.00;81.90;;;;;;5058123;28;20025;-70
2021/03/28 06:41:04;;;;;;;7.22;2.65;;;7.20;1.00;;;;;;5020104;28;20496;-68
2021/03/28 06:44:08;;;;;;;6.18;3.55;;;7.30;1.00;;;;;;5083569;22;20053;-74
2021/03/28 06:47:04;;;;;;;3.75;1.83;;;7.50;1.00;;;;;;5026377;28;20028;-73
2021/03/28 06:49:50;;;;;;;7.75;2.55;;;7.60;1.00;;;;;;5056547;28;20025;-73
2021/03/28 06:52:54;;;;;;;7.25;2.20;;;7.60;99.90;;;;;;5062822;28;20032;-73
2021/03/28 06:55:34;;;;;;;7.28;2.25;;;7.80;99.90;;;;;;5050931;28;20021;-74
2021/03/28 06:58:17;;;;;;;7.97;2.23;;;8.30;1.00;;;;;;5055098;28;20025;-74
2021/03/28 07:01:01;;;;;;;3.55;2.50;;;8.60;99.90;;;;;;5052250;28;20080;-75
2021/03/28 07:03:45;;;;;;;6.88;2.70;;;8.70;99.90;;;;;;5055718;28;20025;-74
2021/03/28 07:06:23;;;;;;;8.07;2.90;;;8.50;1.00;;;;;;5044051;28;20025;-74
2021/03/28 07:09:27;;;;;;;3.78;2.38;;;8.50;99.90;;;;;;5032112;28;20029;-73
2021/03/28 07:12:05;;;;;;;5.10;2.40;;;8.60;54.10;;;;;;5045570;28;20034;-74
2021/03/28 07:15:05;;;;;;;11.52;4.65;;;8.70;1.00;;;;;;5027362;28;20033;-74
2021/03/28 07:17:50;;;;;;;4.80;2.33;;;8.80;1.00;;;;;;5045224;28;20028;-74
2021/03/28 07:20:37;;;;;;;6.28;3.03;;;9.10;1.00;;;;;;5044948;28;20026;-73
2021/03/28 07:23:23;;;;;;;5.30;2.22;;;9.10;99.90;;;;;;5028972;28;20053;-74
2021/03/28 07:26:04;;;;;;;7.88;3.40;;;9.20;48.50;;;;;;5045293;28;20052;-73
2021/03/28 07:29:20;;;;;;;5.30;2.00;;;9.10;75.10;;;;;;5049492;28;20056;-73
2021/03/28 07:32:24;;;;;;;2.47;1.65;;;9.20;1.00;;;;;;5032996;28;20033;-73
2021/03/28 07:35:13;;;;;;;4.88;2.13;;;9.70;1.00;;;;;;5024879;28;20030;-73
2021/03/28 07:37:48;;;;;;;5.78;1.60;;;9.90;99.90;;;;;;5040035;28;20057;-73
2021/03/28 07:40:21;;;;;;;3.80;2.10;;;10.30;99.90;;;;;;5047380;28;20049;-73
2021/03/28 07:43:04;;;;;;;4.22;2.35;;;10.50;99.90;;;;;;5041892;28;20032;-74
2021/03/28 07:45:56;;;;;;;5.07;1.73;;;10.40;68.40;;;;;;5037356;28;20029;-74
2021/03/28 07:48:53;;;;;;;6.53;1.67;;;10.50;1.00;;;;;;5003560;28;20052;-75
2021/03/28 07:51:49;;;;;;;3.55;1.58;;;10.40;99.90;;;;;;4966056;28;20050;-74
2021/03/28 07:54:36;;;;;;;4.05;1.88;;;10.70;99.90;;;;;;5035063;28;20025;-75
2021/03/28 07:57:43;;;;;;;5.90;2.45;;;10.90;99.90;;;;;;5035126;28;20057;-74
2021/03/28 08:00:47;;;;;;;2.95;1.52;;;11.10;16.40;;;;;;5014415;28;20122;-75
2021/03/28 08:03:22;;;;;;;6.95;2.17;;;10.90;1.00;;;;;;5036392;28;20029;-74
2021/03/28 08:06:18;;;;;;;6.50;1.90;;;10.90;23.20;;;;;;5036394;28;20037;-74
2021/03/28 08:09:05;;;;;;;3.53;1.50;;;10.90;99.90;;;;;;4998746;28;20124;-75
2021/03/28 08:11:48;;;;;;;3.10;1.63;;;11.00;1.00;;;;;;5036040;28;20033;-74
2021/03/28 08:14:39;;;;;;;4.13;1.70;;;11.00;1.00;;;;;;5046357;28;20036;-74
2021/03/28 08:17:42;;;;;;;4.90;1.80;;;11.10;43.80;;;;;;5045631;28;20081;-74
2021/03/28 08:20:34;;;;;;;3.17;1.40;;;11.30;1.00;;;;;;5042867;28;20021;-74
2021/03/28 08:23:37;;;;;;;3.80;1.80;;;11.40;99.90;;;;;;5046600;28;20034;-74
2021/03/28 08:26:41;;;;;;;3.22;1.48;;;11.00;1.00;;;;;;5045290;28;20138;-73
2021/03/28 08:29:34;;;;;;;10.70;2.03;;;11.20;1.00;;;;;;5014385;28;20060;-74
2021/03/28 08:32:21;;;;;;;6.35;1.75;;;11.10;1.00;;;;;;5036555;28;20035;-74
2021/03/28 08:35:05;;;;;;;5.15;1.80;;;11.00;29.20;;;;;;5042554;28;20037;-74
2021/03/28 08:37:50;;;;;;;4.18;1.75;;;11.10;1.00;;;;;;5053257;28;20080;-75
2021/03/28 08:40:39;;;;;;;7.63;1.70;;;11.30;16.00;;;;;;5050505;28;20081;-74
2021/03/28 08:43:10;;;;;;;4.40;1.70;;;11.50;99.90;;;;;;5041949;28;20049;-75
2021/03/28 08:46:13;;;;;;;4.85;1.42;;;11.60;99.90;;;;;;5036847;28;20021;-74
2021/03/28 08:48:55;;;;;;;4.13;1.48;;;11.60;99.90;;;;;;5035609;28;20025;-75
2021/03/28 08:51:29;;;;;;;;;;;11.50;99.90;;;;;;5039003;28;20044;-74
2021/03/28 08:54:10;;;;;;;5.78;1.80;;;11.50;99.90;;;;;;5037606;28;19924;-74
2021/03/28 08:56:47;;;;;;;5.00;2.05;;;11.70;99.90;;;;;;5018724;28;20022;-74
2021/03/28 08:59:22;;;;;;;5.40;1.40;;;11.80;99.90;;;;;;5035988;28;20022;-76
2021/03/28 09:02:03;;;;;;;3.58;1.20;;;11.90;99.90;;;;;;5016254;28;20068;-74
2021/03/28 09:05:07;;;;;;;5.80;1.88;;;12.20;99.90;;;;;;5033221;28;20029;-75
2021/03/28 09:08:02;;;;;;;3.90;1.52;;;12.30;99.90;;;;;;5002100;28;20041;-76
2021/03/28 09:10:52;;;;;;;3.15;1.00;;;12.30;13.10;;;;;;5035450;28;20388;-74
2021/03/28 09:13:43;;;;;;;4.35;1.80;;;12.50;1.00;;;;;;5034079;28;20026;-75
2021/03/28 09:16:33;;;;;;;6.90;1.92;;;12.80;1.00;;;;;;5034040;28;20125;-73
2021/03/28 09:19:16;;;;;;;5.97;1.63;;;12.80;1.00;;;;;;5029906;28;20013;-78
2021/03/28 09:22:12;;;;;;;6.38;1.40;;;12.90;1.00;;;;;;5036162;28;20030;-75
2021/03/28 09:25:16;;;;;;;6.10;1.38;;;12.80;1.00;;;;;;5028452;28;20017;-77
2021/03/28 09:28:01;;;;;;;5.65;1.30;;;12.90;1.00;;;;;;5005294;28;20034;-75
2021/03/28 09:30:43;;;;;;;4.55;1.70;;;13.10;99.90;;;;;;5035712;28;20029;-75
2021/03/28 09:33:38;;;;;;;5.68;1.25;;;13.00;99.90;;;;;;5036325;28;20081;-76
2021/03/28 09:36:23;;;;;;;4.82;1.63;;;13.00;99.90;;;;;;5033393;28;20088;-74
2021/03/28 09:39:00;;;;;;;5.72;1.45;;;13.00;99.90;;;;;;5037090;28;20033;-75
2021/03/28 09:41:57;;;;;;;2.30;0.93;;;13.00;99.90;;;;;;5030440;28;20028;-74
2021/03/28 09:44:53;;;;;;;4.00;1.50;;;13.30;99.90;;;;;;5029050;28;20121;-74
2021/03/28 09:47:43;;;;;;;4.32;1.52;;;13.50;99.90;;;;;;5017973;28;20045;-75
2021/03/28 09:50:24;;;;;;;3.72;1.52;;;13.80;99.90;;;;;;5020792;28;20037;-74
2021/03/28 09:53:02;;;;;;;5.13;1.40;;;13.60;99.90;;;;;;5018904;28;20026;-73
2021/03/28 09:55:46;;;;;;;6.25;1.50;;;13.50;99.90;;;;;;5019971;28;20030;-73
2021/03/28 09:58:41;;;;;;;2.15;1.00;;;13.60;99.90;;;;;;5020121;28;20017;-72
2021/03/28 10:01:35;;;;;;;2.85;1.40;;;13.50;99.90;;;;;;5001630;28;20097;-75
2021/03/28 10:04:11;;;;;;;6.20;1.02;;;13.70;99.90;;;;;;5021860;28;20556;-74
2021/03/28 10:06:37;;;;;;;3.65;1.20;;;13.60;99.90;;;;;;5020429;28;20022;-77
2021/03/28 10:09:35;;;;;;;3.63;1.30;;;13.50;99.90;;;;;;5024648;28;20037;-76
2021/03/28 10:12:17;;;;;;;3.25;1.60;;;13.40;99.90;;;;;;5009542;28;20385;-76
2021/03/28 10:14:43;;;;;;;2.17;1.45;;;14.00;99.90;;;;;;5034814;28;20110;-74
2021/03/28 10:17:23;;;;;;;8.55;1.40;;;13.50;99.90;;;;;;5030819;28;20057;-77
2021/03/28 10:19:54;;;;;;;5.53;1.20;;;13.60;99.90;;;;;;5027671;28;20040;-75
2021/03/28 10:22:59;;;;;;;3.47;1.05;;;13.80;99.90;;;;;;5034395;28;20021;-74
2021/03/28 10:25:33;;;;;;;4.10;1.30;;;14.30;99.90;;;;;;5000702;28;20034;-75
2021/03/28 10:28:07;;;;;;;5.05;1.10;;;14.10;99.90;;;;;;5039517;28;20088;-76
2021/03/28 10:30:48;;;;;;;2.63;1.00;;;14.10;99.90;;;;;;5024926;28;20025;-76
2021/03/28 10:33:32;;;;;;;3.28;1.60;;;13.80;99.90;;;;;;5046455;28;20032;-79
2021/03/28 10:36:10;;;;;;;4.90;1.23;;;14.00;99.90;;;;;;5043531;28;20432;-79
2021/03/28 10:39:02;;;;;;;3.60;1.42;;;14.00;99.90;;;;;;5049327;28;20010;-79
2021/03/28 10:41:37;;;;;;;;;;;14.30;99.90;;;;;;5039387;28;20075;-75
2021/03/28 10:44:30;;;;;;;3.13;1.17;;;14.50;99.90;;;;;;5040733;28;19913;-75
2021/03/28 10:47:02;;;;;;;4.80;1.45;;;14.20;96.70;;;;;;5050736;28;20104;-75
2021/03/28 10:50:18;;;;;;;2.25;1.10;;;14.30;97.00;;;;;;5053064;28;20025;-76
2021/03/28 10:53:25;;;;;;;5.18;1.40;;;14.40;95.30;;;;;;5054813;28;20018;-75
2021/03/28 10:56:19;;;;;;;4.25;1.70;;;14.50;94.50;;;;;;5049510;28;20021;-76
2021/03/28 10:58:51;;;;;;;2.97;1.40;;;14.60;93.70;;;;;;5045006;28;20021;-75
2021/03/28 11:01:59;;;;;;;3.85;1.40;;;14.70;90.80;;;;;;5041257;28;20043;-75
2021/03/28 11:05:13;;;;;;;4.28;1.55;;;14.70;89.30;;;;;;5042124;28;20389;-76
2021/03/28 11:07:55;;;;;;;3.13;1.00;;;14.70;82.30;;;;;;4993937;28;20469;-76
2021/03/28 11:10:24;;;;;;;4.45;1.80;;;14.60;79.70;;;;;;5025347;28;20033;-76
2021/03/28 11:13:12;;;;;;;4.50;1.17;;;14.70;76.60;;;;;;5021391;28;20025;-77
2021/03/28 11:15:59;;;;;;;5.47;1.73;;;14.60;75.20;;;;;;5039461;28;20082;-77
2021/03/28 11:18:30;;;;;;;5.22;2.17;;;14.60;71.10;;;;;;5044033;28;20022;-76
2021/03/28 11:21:22;;;;;;;2.60;1.50;;;14.90;71.10;;;;;;5038962;28;20022;-77
2021/03/28 11:24:06;;;;;;;5.03;1.40;;;15.00;68.10;;;;;;5016579;28;20128;-78
2021/03/28 11:26:31;;;;;;;4.10;1.45;;;15.10;64.90;;;;;;5048867;28;20036;-80
2021/03/28 11:29:09;;;;;;;3.40;1.20;;;15.00;59.80;;;;;;5050469;28;20025;-77
2021/03/28 11:31:58;;;;;;;3.85;1.52;;;15.10;62.30;;;;;;5035401;28;20049;-77
2021/03/28 11:34:53;;;;;;;3.10;1.23;;;15.00;59.10;;;;;;5046692;28;20026;-77
2021/03/28 11:37:47;;;;;;;5.20;1.50;;;15.20;57.40;;;;;;5048675;28;20485;-77
2021/03/28 11:40:31;;;;;;;3.33;1.30;;;15.20;56.80;;;;;;5050291;28;20362;-75
2021/03/28 11:43:06;;;;;;;3.03;1.38;;;15.20;54.20;;;;;;5025974;28;20036;-77
2021/03/28 11:45:41;;;;;;;5.93;2.03;;;15.40;54.30;;;;;;5044752;28;20436;-77
2021/03/28 11:48:42;;;;;;;3.65;1.10;;;15.60;51.10;;;;;;5044323;28;20030;-76
2021/03/28 11:51:29;;;;;;;3.25;1.75;;;15.50;49.50;;;;;;5026200;28;20048;-77
2021/03/28 11:54:10;;;;;;;3.47;1.55;;;15.60;46.80;;;;;;5046873;28;20044;-79
2021/03/28 11:56:49;;;;;;;3.42;1.35;;;15.60;47.80;;;;;;5049524;28;20077;-77
2021/03/28 11:59:25;;;;;;;5.85;1.63;;;15.50;47.60;;;;;;5030105;28;20049;-78
2021/03/28 12:01:57;;;;;;;3.58;1.60;;;15.50;46.60;;;;;;5043696;28;20492;-74
2021/03/28 12:04:51;;;;;;;4.43;1.40;;;15.70;48.60;;;;;;5037599;28;20031;-76
2021/03/28 12:07:37;;;;;;;6.38;1.42;;;15.60;48.40;;;;;;5037883;28;20422;-75
2021/03/28 12:10:03;;;;;;;2.72;1.27;;;15.60;46.90;;;;;;5046580;28;20104;-76
2021/03/28 12:12:40;;;;;;;2.03;1.38;;;15.60;44.90;;;;;;5039721;28;20072;-75
2021/03/28 12:16:00;;;;;;;5.25;1.65;;;15.70;44.00;;;;;;5056657;28;20010;-75
2021/03/28 12:18:29;;;;;;;5.05;1.40;;;15.70;42.00;;;;;;4967132;29;20066;-75
2021/03/28 12:21:04;;;;;;;3.15;1.35;;;15.60;39.40;;;;;;5025108;28;20065;-76
2021/03/28 12:23:41;;;;;;;2.58;1.27;;;15.60;39.30;;;;;;5051130;28;20032;-77
2021/03/28 12:26:22;;;;;;;3.53;1.30;;;15.80;39.20;;;;;;5037836;28;20113;-76
2021/03/28 12:28:54;;;;;;;2.80;1.17;;;15.60;36.30;;;;;;5031245;28;20022;-77
2021/03/28 12:31:42;;;;;;;3.47;1.10;;;15.70;35.90;;;;;;5031674;28;20030;-77
2021/03/28 12:34:13;;;;;;;4.35;1.25;;;15.90;35.10;;;;;;5027707;28;20036;-75
2021/03/28 12:36:46;;;;;;;7.10;1.20;;;15.80;33.20;;;;;;5026821;28;20030;-77
2021/03/28 12:39:15;;;;;;;3.22;1.35;;;15.80;34.20;;;;;;4989763;28;20088;-76
2021/03/28 12:44:56;;;;;;;6.60;1.23;;;16.20;33.00;;;;;;5096239;23;20129;-80
2021/03/28 12:47:45;;;;;;;4.35;1.10;;;16.20;30.80;;;;;;5059269;28;20025;-81
2021/03/28 12:50:29;;;;;;;4.32;1.30;;;16.20;29.90;;;;;;5069909;28;20033;-82
2021/03/28 12:53:15;;;;;;;3.15;0.88;;;15.90;27.50;;;;;;5052201;28;20037;-81
2021/03/28 12:56:22;;;;;;;4.80;1.40;;;15.80;26.80;;;;;;5037983;28;20116;-80
2021/03/28 12:59:23;;;;;;;3.22;1.20;;;15.60;26.50;;;;;;5047603;28;20033;-80
2021/03/28 13:02:13;;;;;;;;;;;15.90;28.40;;;;;;5008618;28;20041;-81
2021/03/28 13:05:08;;;;;;;4.55;1.20;;;16.10;28.60;;;;;;5041388;28;20013;-82
2021/03/28 13:08:01;;;;;;;3.15;1.30;;;15.90;26.90;;;;;;4982696;28;20034;-84
2021/03/28 13:10:38;;;;;;;5.15;1.75;;;16.20;27.20;;;;;;5045576;28;20025;-79
2021/03/28 13:13:35;;;;;;;4.03;1.45;;;16.40;26.80;;;;;;5059812;28;20037;-80
2021/03/28 13:16:29;;;;;;;7.15;1.77;;;16.40;25.20;;;;;;5041326;28;20055;-81
2021/03/28 13:19:05;;;;;;;3.17;1.05;;;16.50;24.80;;;;;;5030696;28;20084;-81
2021/03/28 13:21:46;;;;;;;4.10;1.48;;;16.50;24.70;;;;;;5031458;28;20481;-80
2021/03/28 13:24:23;;;;;;;3.17;1.98;;;16.40;25.20;;;;;;5043750;28;20024;-80
2021/03/28 13:40:39;;;;;;;2.55;1.20;;;16.40;22.00;;;;;;5038369;28;19911;-81
2021/03/28 13:53:50;;;;;;;5.13;1.17;;;16.30;19.40;;;;;;5063433;28;20191;-80
2021/03/28 13:56:32;;;;;;;3.58;1.10;;;16.50;19.80;;;;;;5049294;23;20094;-75
2021/03/28 13:59:17;;;;;;;3.60;1.30;;;16.60;20.80;;;;;;5055969;28;20033;-74
2021/03/28 14:01:47;;;;;;;3.55;1.60;;;16.80;21.20;;;;;;5074752;28;20085;-73
2021/03/28 14:04:21;;;;;;;2.08;0.88;;;16.70;18.70;;;;;;5074118;28;20032;-75
2021/03/28 14:07:00;;;;;;;4.72;1.65;;;16.60;17.80;;;;;;5065399;28;20108;-76
2021/03/28 14:09:52;;;;;;;4.32;1.60;;;16.80;18.30;;;;;;5055094;28;20100;-74
2021/03/28 14:12:42;;;;;;;2.60;1.33;;;16.90;17.50;;;;;;5043764;28;20396;-76
2021/03/28 14:15:21;;;;;;;2.88;0.85;;;16.80;16.30;;;;;;5025660;28;20081;-75
2021/03/28 14:18:05;;;;;;;4.32;1.45;;;16.90;17.00;;;;;;5047828;28;20359;-78
2021/03/28 14:20:39;;;;;;;3.60;1.42;;;17.20;17.10;;;;;;5035437;28;20029;-74
2021/03/28 14:23:10;;;;;;;3.92;1.52;;;17.00;15.40;;;;;;5035984;28;20109;-76
2021/03/28 14:25:51;;;;;;;2.30;1.20;;;17.10;14.90;;;;;;5034052;28;20071;-76
2021/03/28 14:28:25;;;;;;;3.25;1.58;;;17.10;14.60;;;;;;5058682;28;20044;-78
2021/03/28 14:31:04;;;;;;;4.55;1.58;;;17.20;14.20;;;;;;5062149;28;20033;-75
2021/03/28 14:33:58;;;;;;;3.53;1.15;;;17.30;13.00;;;;;;5057788;28;20025;-77
2021/03/28 14:36:43;;;;;;;2.75;0.98;;;17.30;11.60;;;;;;5061217;28;20025;-77
2021/03/28 14:39:45;;;;;;;5.63;1.30;;;17.20;11.30;;;;;;5072413;28;20028;-75
2021/03/28 14:42:17;;;;;;;3.60;1.15;;;17.20;10.80;;;;;;5070631;28;20025;-74
2021/03/28 14:45:01;;;;;;;3.60;1.50;;;17.30;10.40;;;;;;5047038;28;20021;-75
2021/03/28 14:47:59;;;;;;;4.35;1.27;;;17.40;8.30;;;;;;5048347;28;20087;-75
2021/03/28 14:50:55;;;;;;;3.00;1.13;;;17.40;7.40;;;;;;5044169;28;20088;-75
2021/03/28 14:53:28;;;;;;;3.20;1.23;;;17.40;6.40;;;;;;5042043;28;20055;-76
2021/03/28 14:56:20;;;;;;;3.45;1.25;;;17.40;5.50;;;;;;5058645;28;20025;-76
2021/03/28 14:58:48;;;;;;;3.75;1.42;;;17.50;4.90;;;;;;5041823;28;20032;-74
2021/03/28 15:01:33;;;;;;;5.00;3.72;;;17.40;3.20;;;;;;5060468;28;20027;-76